Time;durP1;ratioP1;P1;durP2;ratioP2;P2;SDS_P1;SDS_P2;PMS_P1;PMS_P2;Temp;Humidity;BMP_temperature;BMP_pressure;BME280_temperature;BME280_humidity;BME280_pressure;Samples;Min_cycle;Max_cycle;Signal;HPM_P1;HPM_P2
2023/05/10 00:00:18;;;;;;;;;;;;;;;13.72;100.00;100762.69;10415096;28;19979;-69
2023/05/10 00:05:21;;;;;;;;;;;;;;;13.46;100.00;100774.19;10431951;28;19971;-69
2023/05/10 00:10:23;;;;;;;;;;;;;;;13.58;100.00;100773.31;10455994;28;19978;-69
2023/05/10 00:15:25;;;;;;;;;;;;;;;13.48;100.00;100775.78;10417101;28;19925;-69
2023/05/10 00:20:27;;;;;;;;;;;;;;;13.78;100.00;100768.47;10454456;28;19936;-69
2023/05/10 00:25:29;;;;;;;;;;;;;;;13.76;100.00;100768.56;10413557;28;19925;-69
2023/05/10 00:30:31;;;;;;;;;;;;;;;13.57;100.00;100761.13;10423872;28;19929;-69
2023/05/10 00:35:34;;;;;;;;;;;;;;;13.85;100.00;100757.41;10423812;28;19945;-69
2023/05/10 00:40:37;;;;;;;;;;;;;;;13.79;100.00;100757.81;10528296;22;19981;-64
2023/05/10 00:45:39;;;;;;;;;;;;;;;13.99;100.00;100753.75;10544731;28;19927;-64
2023/05/10 00:50:42;;;;;;;;;;;;;;;13.85;100.00;100753.91;10545608;28;19971;-64
2023/05/10 00:55:44;;;;;;;;;;;;;;;13.74;100.00;100759.94;10546796;28;20333;-64
2023/05/10 01:00:47;;;;;;;;;;;;;;;13.76;100.00;100760.66;10544535;28;19967;-64
2023/05/10 01:05:49;;;;;;;;;;;;;;;13.84;100.00;100758.34;10544423;28;19932;-64
2023/05/10 01:10:52;;;;;;;;;;;;;;;13.66;100.00;100749.94;10543203;28;20306;-64
2023/05/10 01:15:54;;;;;;;;;;;;;;;13.74;100.00;100754.69;10544797;28;20332;-64
2023/05/10 01:21:01;;;;;;;;;;;;;;;13.27;100.00;100757.03;10544530;28;20022;-64
2023/05/10 01:26:03;;;;;;;;;;;;;;;13.62;100.00;100760.81;10542909;28;20290;-64
2023/05/10 01:31:09;;;;;;;;;;;;;;;13.40;100.00;100764.97;10544345;28;19924;-64
2023/05/10 01:36:11;;;;;;;;;;;;;;;13.59;100.00;100763.66;10544633;28;19967;-64
2023/05/10 01:41:17;;;;;;;;;;;;;;;13.46;100.00;100761.03;10543703;28;19924;-64
2023/05/10 01:46:38;;;;;;;;;;;;;;;13.34;100.00;100766.22;10542969;28;20291;-64
2023/05/10 01:51:42;;;;;;;;;;;;;;;13.63;100.00;100765.13;10542701;28;20015;-64
2023/05/10 01:56:44;;;;;;;;;;;;;;;13.55;100.00;100763.88;10540415;28;20337;-64
2023/05/10 02:01:46;;;;;;;;;;;;;;;13.36;100.00;100766.09;10541932;28;19924;-64
2023/05/10 02:06:49;;;;;;;;;;;;;;;13.59;100.00;100756.59;10543490;28;20012;-64
2023/05/10 02:11:51;;;;;;;;;;;;;;;13.30;100.00;100764.72;10542907;28;19924;-64
2023/05/10 02:16:53;;;;;;;;;;;;;;;13.31;100.00;100770.81;10542188;28;19924;-64
2023/05/10 02:21:56;;;;;;;;;;;;;;;13.37;100.00;100778.31;10541139;28;20022;-64
2023/05/10 02:26:58;;;;;;;;;;;;;;;13.43;100.00;100787.56;10543807;28;19973;-64
2023/05/10 02:32:00;;;;;;;;;;;;;;;13.28;100.00;100792.91;10542524;28;19978;-64
2023/05/10 02:37:02;;;;;;;;;;;;;;;13.33;100.00;100793.47;10543170;28;19928;-64
2023/05/10 02:42:04;;;;;;;;;;;;;;;13.09;100.00;100797.75;10540400;28;20362;-64
2023/05/10 02:47:07;;;;;;;;;;;;;;;13.36;100.00;100798.53;10543058;28;19932;-64
2023/05/10 02:52:09;;;;;;;;;;;;;;;13.32;100.00;100797.03;10540207;28;19973;-64
2023/05/10 02:57:14;;;;;;;;;;;;;;;12.86;100.00;100810.66;10542353;28;19924;-64
2023/05/10 03:02:16;;;;;;;;;;;;;;;13.22;100.00;100801.22;10539530;28;19924;-64
2023/05/10 03:07:21;;;;;;;;;;;;;;;13.37;100.00;100792.28;10541101;28;20045;-64
2023/05/10 03:12:26;;;;;;;;;;;;;;;13.27;100.00;100799.09;10541239;28;19977;-64
2023/05/10 03:17:40;;;;;;;;;;;;;;;13.39;100.00;100797.44;10541892;28;19924;-64
2023/05/10 03:22:46;;;;;;;;;;;;;;;13.05;100.00;100801.53;10539856;28;19924;-64
2023/05/10 03:27:49;;;;;;;;;;;;;;;13.15;100.00;100807.84;10539769;28;20317;-64
2023/05/10 03:32:51;;;;;;;;;;;;;;;13.15;100.00;100800.78;10540445;28;19924;-64
2023/05/10 03:37:53;;;;;;;;;;;;;;;13.07;100.00;100807.50;10539686;28;19927;-64
2023/05/10 03:42:56;;;;;;;;;;;;;;;13.45;100.00;100807.56;10537312;28;19924;-64
2023/05/10 03:47:58;;;;;;;;;;;;;;;13.31;100.00;100818.13;10540946;28;19928;-64
2023/05/10 03:53:00;;;;;;;;;;;;;;;13.31;100.00;100818.97;10539976;28;19924;-64
2023/05/10 03:58:02;;;;;;;;;;;;;;;13.26;100.00;100826.34;10539991;28;20366;-64
2023/05/10 04:03:04;;;;;;;;;;;;;;;13.26;100.00;100826.34;10538046;28;19929;-64
2023/05/10 04:08:07;;;;;;;;;;;;;;;13.19;100.00;100828.53;10545986;28;19924;-64
2023/05/10 04:13:09;;;;;;;;;;;;;;;13.40;100.00;100821.94;10547486;28;19928;-64
2023/05/10 04:18:11;;;;;;;;;;;;;;;13.59;100.00;100827.63;10548119;28;19924;-64
2023/05/10 04:23:15;;;;;;;;;;;;;;;13.29;100.00;100833.19;10544189;28;19931;-64
2023/05/10 04:28:17;;;;;;;;;;;;;;;13.18;100.00;100841.81;10548618;28;19925;-64
2023/05/10 04:33:19;;;;;;;;;;;;;;;13.61;100.00;100838.88;10546926;28;19935;-64
2023/05/10 04:38:21;;;;;;;;;;;;;;;13.50;100.00;100837.00;10544687;28;19935;-64
2023/05/10 04:43:23;;;;;;;;;;;;;;;13.49;100.00;100847.63;10546023;28;19924;-64
2023/05/10 04:48:26;;;;;;;;;;;;;;;13.40;100.00;100840.34;10543474;28;19924;-64
2023/05/10 04:53:28;;;;;;;;;;;;;;;13.43;100.00;100838.38;10545705;28;19924;-64
2023/05/10 04:58:30;;;;;;;;;;;;;;;13.28;100.00;100855.16;10544785;28;20444;-64
2023/05/10 05:03:33;;;;;;;;;;;;;;;13.30;100.00;100846.22;10545374;28;20325;-64
2023/05/10 05:08:35;;;;;;;;;;;;;;;13.46;100.00;100859.19;10545382;28;20264;-64
2023/05/10 05:13:38;;;;;;;;;;;;;;;13.56;100.00;100862.03;10541557;28;20376;-64
2023/05/10 05:18:40;;;;;;;;;;;;;;;13.65;100.00;100858.78;10536696;28;20367;-64
2023/05/10 05:23:43;;;;;;;;;;;;;;;13.54;100.00;100864.78;10538005;28;19977;-64
2023/05/10 05:28:45;;;;;;;;;;;;;;;13.70;100.00;100859.31;10540368;28;19978;-64
2023/05/10 05:33:47;;;;;;;;;;;;;;;13.72;100.00;100857.41;10545370;28;20330;-64
2023/05/10 05:38:50;;;;;;;;;;;;;;;13.70;100.00;100868.97;10542274;28;19935;-64
2023/05/10 05:43:52;;;;;;;;;;;;;;;13.75;100.00;100875.63;10543818;28;19924;-64
2023/05/10 05:48:54;;;;;;;;;;;;;;;13.89;100.00;100868.53;10543825;28;19924;-64
2023/05/10 05:53:57;;;;;;;;;;;;;;;13.65;100.00;100864.03;10543316;28;19924;-64
2023/05/10 05:58:59;;;;;;;;;;;;;;;13.62;100.00;100868.69;10541923;28;19924;-64
2023/05/10 06:04:01;;;;;;;;;;;;;;;13.77;100.00;100870.25;10539295;28;19932;-64
2023/05/10 06:09:03;;;;;;;;;;;;;;;13.83;100.00;100867.16;10539742;28;19925;-70
2023/05/10 06:14:07;;;;;;;;;;;;;;;13.90;100.00;100880.75;10526191;28;20375;-65
2023/05/10 06:19:09;;;;;;;;;;;;;;;13.98;100.00;100880.22;10543426;28;19986;-65
2023/05/10 06:24:12;;;;;;;;;;;;;;;14.16;100.00;100881.53;10542159;28;20298;-65
2023/05/10 06:29:15;;;;;;;;;;;;;;;14.40;100.00;100889.47;10542957;28;19931;-65
2023/05/10 06:34:17;;;;;;;;;;;;;;;13.99;100.00;100885.38;10541130;28;20264;-64
2023/05/10 06:39:19;;;;;;;;;;;;;;;14.17;100.00;100901.66;10542742;28;19932;-65
2023/05/10 06:44:21;;;;;;;;;;;;;;;13.89;100.00;100908.84;10522147;28;19925;-63
2023/05/10 06:49:24;;;;;;;;;;;;;;;13.86;100.00;100903.78;10500302;28;19924;-62
2023/05/10 06:54:26;;;;;;;;;;;;;;;13.83;100.00;100913.69;10500153;28;19947;-65
2023/05/10 06:59:28;;;;;;;;;;;;;;;13.83;100.00;100924.22;10500574;28;19932;-64
2023/05/10 07:04:31;;;;;;;;;;;;;;;13.69;100.00;100922.56;10500374;28;19939;-64
2023/05/10 07:09:33;;;;;;;;;;;;;;;13.66;100.00;100922.75;10499596;28;20307;-64
2023/05/10 07:14:36;;;;;;;;;;;;;;;13.76;100.00;100931.69;10540937;28;19931;-63
2023/05/10 07:19:38;;;;;;;;;;;;;;;13.50;100.00;100936.09;10541778;28;19924;-63
2023/05/10 07:24:40;;;;;;;;;;;;;;;13.49;100.00;100948.41;10541654;28;19950;-63
2023/05/10 07:29:42;;;;;;;;;;;;;;;13.67;100.00;100951.59;10540784;28;19954;-63
2023/05/10 07:34:44;;;;;;;;;;;;;;;13.72;100.00;100946.03;10540706;28;19924;-63
2023/05/10 07:39:47;;;;;;;;;;;;;;;13.85;100.00;100948.63;10539996;28;19924;-63
2023/05/10 07:44:49;;;;;;;;;;;;;;;14.03;100.00;100950.00;10540156;28;19951;-63
2023/05/10 07:49:52;;;;;;;;;;;;;;;14.42;100.00;100950.78;10540908;28;19970;-63
2023/05/10 07:54:54;;;;;;;;;;;;;;;14.24;100.00;100949.44;10540156;28;20350;-63
2023/05/10 07:59:56;;;;;;;;;;;;;;;14.35;100.00;100959.25;10539936;28;19931;-63
2023/05/10 08:04:58;;;;;;;;;;;;;;;14.47;100.00;100958.34;10540032;28;19924;-63
2023/05/10 08:10:01;;;;;;;;;;;;;;;14.44;100.00;100967.34;10539363;28;19924;-63
2023/05/10 08:15:03;;;;;;;;;;;;;;;14.84;100.00;100958.38;10539857;28;19941;-64
2023/05/10 08:20:07;;;;;;;;;;;;;;;14.97;100.00;100961.81;10539901;28;20367;-63
2023/05/10 08:25:09;;;;;;;;;;;;;;;14.93;100.00;100964.75;10540216;28;19981;-63
2023/05/10 08:30:12;;;;;;;;;;;;;;;15.36;100.00;100957.16;10540138;28;19974;-63
2023/05/10 08:35:15;;;;;;;;;;;;;;;15.07;100.00;100963.78;10540068;28;19924;-63
2023/05/10 08:40:19;;;;;;;;;;;;;;;14.85;100.00;100974.06;10538148;28;19924;-63
2023/05/10 08:45:22;;;;;;;;;;;;;;;14.94;100.00;100979.63;10538646;28;19928;-63
2023/05/10 08:50:24;;;;;;;;;;;;;;;15.05;100.00;100998.16;10538549;28;19928;-63
2023/05/10 08:55:26;;;;;;;;;;;;;;;14.97;100.00;100990.78;10546659;28;19974;-63
2023/05/10 09:00:29;;;;;;;;;;;;;;;15.25;100.00;100988.78;10545608;28;19924;-63
2023/05/10 09:05:31;;;;;;;;;;;;;;;14.86;100.00;100996.88;10546023;28;19932;-63
2023/05/10 09:10:33;;;;;;;;;;;;;;;14.57;100.00;101003.34;10546527;28;20361;-63
2023/05/10 09:15:36;;;;;;;;;;;;;;;14.82;100.00;101010.38;10544948;28;19924;-63
2023/05/10 09:20:38;;;;;;;;;;;;;;;15.52;100.00;101012.25;10546087;28;19924;-63
2023/05/10 09:25:43;;;;;;;;;;;;;;;15.18;100.00;101020.03;10545735;28;20333;-62
2023/05/10 09:30:46;;;;;;;;;;;;;;;14.57;100.00;101024.41;10545521;28;20375;-63
2023/05/10 09:35:48;;;;;;;;;;;;;;;14.36;100.00;101039.94;10544058;28;19924;-63
2023/05/10 09:40:54;;;;;;;;;;;;;;;14.70;100.00;101037.59;10543761;28;19935;-63
2023/05/10 09:45:56;;;;;;;;;;;;;;;14.60;100.00;101043.50;10543773;28;19939;-63
2023/05/10 09:50:58;;;;;;;;;;;;;;;14.67;100.00;101052.66;10544937;28;19924;-63
2023/05/10 09:56:00;;;;;;;;;;;;;;;14.90;100.00;101050.19;10545051;28;20402;-63
2023/05/10 10:01:03;;;;;;;;;;;;;;;15.21;100.00;101054.13;10544573;28;20328;-63
2023/05/10 10:06:05;;;;;;;;;;;;;;;14.99;100.00;101051.34;10543899;28;19973;-63
2023/05/10 10:11:17;;;;;;;;;;;;;;;15.49;100.00;101054.72;10543509;28;19924;-63
2023/05/10 10:16:20;;;;;;;;;;;;;;;15.14;100.00;101057.28;10525644;28;20264;-63
2023/05/10 10:21:22;;;;;;;;;;;;;;;15.07;100.00;101069.25;10542293;28;20371;-63
2023/05/10 10:26:25;;;;;;;;;;;;;;;14.82;100.00;101057.81;10537565;28;19977;-63
2023/05/10 10:31:49;;;;;;;;;;;;;;;15.58;100.00;101064.59;10541096;28;20264;-63
2023/05/10 10:36:52;;;;;;;;;;;;;;;15.93;100.00;101058.47;10469323;28;19924;-63
2023/05/10 10:41:55;;;;;;;;;;;;;;;15.79;100.00;101062.16;10524337;28;19966;-63
2023/05/10 10:47:00;;;;;;;;;;;;;;;16.65;100.00;101052.06;10541449;28;19924;-64
2023/05/10 10:52:22;;;;;;;;;;;;;;;17.36;95.45;101053.50;10538369;28;19924;-64
2023/05/10 10:57:26;;;;;;;;;;;;;;;18.19;94.66;101052.72;10539248;28;20366;-64
2023/05/10 11:02:43;;;;;;;;;;;;;;;19.28;91.01;101036.16;10540047;28;20019;-63
2023/05/10 11:07:53;;;;;;;;;;;;;;;17.54;89.50;101051.97;10540038;28;19969;-64
2023/05/10 11:13:03;;;;;;;;;;;;;;;16.53;95.26;101059.16;10498345;28;19924;-64
2023/05/10 11:18:18;;;;;;;;;;;;;;;16.96;95.75;101064.66;10532461;28;19928;-64
2023/05/10 11:23:21;;;;;;;;;;;;;;;17.26;86.71;101053.41;10539052;28;19967;-63
2023/05/10 11:28:23;;;;;;;;;;;;;;;17.61;88.17;101057.63;10540696;28;20034;-63
2023/05/10 11:33:25;;;;;;;;;;;;;;;17.13;88.90;101058.88;10539746;28;20403;-63
2023/05/10 11:38:27;;;;;;;;;;;;;;;17.01;88.45;101071.28;10540104;28;19977;-63
2023/05/10 11:43:30;;;;;;;;;;;;;;;18.01;85.05;101060.44;10540407;28;19928;-64
2023/05/10 11:48:32;;;;;;;;;;;;;;;16.82;87.03;101077.16;10537707;28;19950;-68
2023/05/10 11:53:35;;;;;;;;;;;;;;;17.12;90.72;101073.06;10535565;28;19924;-63
2023/05/10 11:58:37;;;;;;;;;;;;;;;16.81;89.93;101075.50;10539875;28;19932;-63
2023/05/10 12:03:40;;;;;;;;;;;;;;;17.15;89.51;101077.28;10538599;28;20318;-63
2023/05/10 12:08:46;;;;;;;;;;;;;;;17.08;87.94;101069.00;10538694;28;19970;-63
2023/05/10 12:13:49;;;;;;;;;;;;;;;17.03;87.71;101068.50;10539936;28;19931;-64
2023/05/10 12:18:52;;;;;;;;;;;;;;;16.43;88.52;101081.97;10539987;28;19950;-63
2023/05/10 12:23:58;;;;;;;;;;;;;;;16.50;91.57;101080.53;10539121;28;19924;-63
2023/05/10 12:29:13;;;;;;;;;;;;;;;16.46;91.15;101084.38;10544434;28;19928;-63
2023/05/10 12:34:22;;;;;;;;;;;;;;;16.27;87.25;101082.34;10548502;28;19924;-63
2023/05/10 12:39:26;;;;;;;;;;;;;;;16.47;86.86;101090.50;10547483;28;19924;-63
2023/05/10 12:44:28;;;;;;;;;;;;;;;16.81;92.36;101088.72;10548025;28;19924;-63
2023/05/10 12:49:30;;;;;;;;;;;;;;;16.87;95.14;101092.69;10547927;28;19932;-63
2023/05/10 12:54:33;;;;;;;;;;;;;;;16.93;94.01;101105.44;10529317;22;19978;-64
2023/05/10 12:59:35;;;;;;;;;;;;;;;16.82;92.52;101100.13;10505474;28;19924;-64
2023/05/10 13:04:39;;;;;;;;;;;;;;;16.86;93.96;101106.88;10504992;28;19931;-64
2023/05/10 13:09:42;;;;;;;;;;;;;;;16.53;93.78;101112.00;10505019;28;19978;-64
2023/05/10 13:14:44;;;;;;;;;;;;;;;15.85;97.36;101121.56;10502094;28;19924;-64
2023/05/10 13:19:46;;;;;;;;;;;;;;;15.94;99.50;101117.44;10502607;28;19970;-64
2023/05/10 13:24:48;;;;;;;;;;;;;;;15.82;100.00;101127.09;10503929;28;20280;-64
2023/05/10 13:29:51;;;;;;;;;;;;;;;15.67;100.00;101126.41;10503771;28;20417;-64
2023/05/10 13:34:53;;;;;;;;;;;;;;;15.32;100.00;101134.25;10504190;28;19928;-64
2023/05/10 13:39:55;;;;;;;;;;;;;;;15.57;100.00;101131.50;10502578;28;19924;-64
2023/05/10 13:44:57;;;;;;;;;;;;;;;15.89;100.00;101133.59;10502741;28;19925;-64
2023/05/10 13:50:00;;;;;;;;;;;;;;;15.57;100.00;101128.88;10502659;28;19928;-64
2023/05/10 13:55:03;;;;;;;;;;;;;;;15.71;100.00;101130.50;10501899;28;19925;-64
2023/05/10 14:00:06;;;;;;;;;;;;;;;15.65;100.00;101136.25;10503159;28;19925;-65
2023/05/10 14:05:08;;;;;;;;;;;;;;;16.03;100.00;101137.84;10501750;28;19995;-65
2023/05/10 14:10:10;;;;;;;;;;;;;;;16.03;100.00;101137.84;10502179;28;20378;-65
2023/05/10 14:15:12;;;;;;;;;;;;;;;15.55;100.00;101137.84;10502661;28;19974;-65
2023/05/10 14:20:15;;;;;;;;;;;;;;;15.84;100.00;101141.03;10498013;28;19985;-65
2023/05/10 14:25:17;;;;;;;;;;;;;;;15.92;100.00;101132.53;10499094;28;19928;-65
2023/05/10 14:30:19;;;;;;;;;;;;;;;15.68;100.00;101128.06;10501353;28;19924;-65
2023/05/10 14:35:22;;;;;;;;;;;;;;;16.29;100.00;101130.59;10501050;28;19928;-65
2023/05/10 14:40:24;;;;;;;;;;;;;;;16.48;100.00;101140.59;10500828;28;19986;-65
2023/05/10 14:45:26;;;;;;;;;;;;;;;16.37;100.00;101130.00;10501349;28;19924;-65
2023/05/10 14:50:28;;;;;;;;;;;;;;;17.31;98.78;101135.06;10482473;28;20267;-65
2023/05/10 14:55:38;;;;;;;;;;;;;;;17.59;100.00;101128.38;10495303;28;20031;-65
2023/05/10 15:00:40;;;;;;;;;;;;;;;17.07;100.00;101138.72;10496480;28;19924;-65
2023/05/10 15:05:42;;;;;;;;;;;;;;;17.36;99.68;101133.72;10479950;28;19925;-65
2023/05/10 15:10:44;;;;;;;;;;;;;;;17.70;93.44;101132.78;10450779;28;20265;-65
2023/05/10 15:15:47;;;;;;;;;;;;;;;17.61;97.34;101132.56;10480256;28;20433;-65
2023/05/10 15:20:49;;;;;;;;;;;;;;;17.81;90.47;101127.44;10491209;28;20256;-65
2023/05/10 15:25:55;;;;;;;;;;;;;;;16.92;93.33;101150.53;10486478;28;20438;-65
2023/05/10 15:30:57;;;;;;;;;;;;;;;16.69;100.00;101156.63;10495468;28;19924;-65
2023/05/10 15:36:03;;;;;;;;;;;;;;;16.81;100.00;101157.47;10484212;28;20480;-65
2023/05/10 15:41:05;;;;;;;;;;;;;;;16.10;100.00;101162.00;10462853;28;19929;-64
2023/05/10 15:46:08;;;;;;;;;;;;;;;16.35;100.00;101167.09;10471490;28;21308;-64
2023/05/10 15:51:10;;;;;;;;;;;;;;;16.18;100.00;101166.72;10476324;28;20011;-64
2023/05/10 15:56:12;;;;;;;;;;;;;;;16.28;100.00;101165.06;10493692;28;19929;-64
2023/05/10 16:01:15;;;;;;;;;;;;;;;16.02;100.00;101170.50;10459854;28;19940;-64
2023/05/10 16:06:17;;;;;;;;;;;;;;;16.42;100.00;101159.56;10470060;28;19932;-64
2023/05/10 16:11:20;;;;;;;;;;;;;;;17.23;100.00;101165.66;10487543;28;19977;-65
2023/05/10 16:16:23;;;;;;;;;;;;;;;16.83;100.00;101174.03;10495492;28;20395;-64
2023/05/10 16:21:25;;;;;;;;;;;;;;;17.15;99.36;101168.06;10495609;28;19924;-65
2023/05/10 16:26:27;;;;;;;;;;;;;;;16.86;100.00;101167.69;10496105;28;19924;-65
2023/05/10 16:31:30;;;;;;;;;;;;;;;16.45;100.00;101174.34;10459215;28;19925;-65
2023/05/10 16:36:32;;;;;;;;;;;;;;;16.27;100.00;101174.81;10484654;28;19955;-65
2023/05/10 16:41:35;;;;;;;;;;;;;;;16.70;100.00;101179.44;10495422;28;19925;-65
2023/05/10 16:46:37;;;;;;;;;;;;;;;16.67;98.23;101187.59;10438507;28;20380;-65
2023/05/10 16:51:39;;;;;;;;;;;;;;;16.85;99.67;101192.47;10492459;28;20333;-64
2023/05/10 16:56:41;;;;;;;;;;;;;;;16.83;97.35;101202.31;10495686;28;19929;-64
2023/05/10 17:01:45;;;;;;;;;;;;;;;16.64;96.37;101197.56;10497473;28;19932;-64
2023/05/10 17:06:48;;;;;;;;;;;;;;;16.67;99.55;101213.19;10492901;28;19924;-64
2023/05/10 17:11:50;;;;;;;;;;;;;;;16.31;96.53;101205.31;10494053;28;20310;-64
2023/05/10 17:16:53;;;;;;;;;;;;;;;16.70;96.08;101202.38;10502732;28;19935;-64
2023/05/10 17:21:56;;;;;;;;;;;;;;;16.51;96.28;101201.16;10503099;28;19924;-64
2023/05/10 17:26:59;;;;;;;;;;;;;;;16.42;99.38;101215.06;10503446;28;20276;-64
2023/05/10 17:32:01;;;;;;;;;;;;;;;16.30;96.70;101210.69;10504309;28;19924;-64
2023/05/10 17:37:04;;;;;;;;;;;;;;;16.24;100.00;101219.06;10502301;28;19931;-64
2023/05/10 17:42:06;;;;;;;;;;;;;;;16.14;99.42;101222.41;10502945;28;20367;-64
2023/05/10 17:47:09;;;;;;;;;;;;;;;16.21;99.39;101228.09;10502777;28;19970;-64
2023/05/10 17:52:11;;;;;;;;;;;;;;;16.33;99.18;101216.59;10502088;28;19925;-64
2023/05/10 17:57:13;;;;;;;;;;;;;;;16.15;100.00;101225.88;10502648;28;19929;-64
2023/05/10 18:02:15;;;;;;;;;;;;;;;15.90;100.00;101222.44;10502169;28;20440;-64
2023/05/10 18:07:19;;;;;;;;;;;;;;;16.02;98.47;101230.38;10498769;28;19995;-64
2023/05/10 18:12:21;;;;;;;;;;;;;;;15.60;100.00;101234.22;10501926;28;19970;-64
2023/05/10 18:17:23;;;;;;;;;;;;;;;15.31;100.00;101231.00;10500574;28;20264;-64
2023/05/10 18:22:26;;;;;;;;;;;;;;;15.50;100.00;101238.47;10502310;28;19924;-64
2023/05/10 18:27:28;;;;;;;;;;;;;;;15.34;100.00;101248.41;10500979;28;19924;-64
2023/05/10 18:32:31;;;;;;;;;;;;;;;15.40;100.00;101242.72;10494192;28;19947;-64
2023/05/10 18:37:33;;;;;;;;;;;;;;;15.37;100.00;101250.84;10490625;28;19924;-64
2023/05/10 18:42:35;;;;;;;;;;;;;;;15.28;100.00;101252.34;10472141;28;19925;-64
2023/05/10 18:47:38;;;;;;;;;;;;;;;15.32;100.00;101252.97;10500611;28;19924;-64
2023/05/10 18:52:41;;;;;;;;;;;;;;;15.19;100.00;101255.59;10482820;28;19924;-64
2023/05/10 18:57:44;;;;;;;;;;;;;;;15.16;100.00;101258.44;10499062;28;20329;-64
2023/05/10 19:02:46;;;;;;;;;;;;;;;15.21;100.00;101253.69;10499710;28;19952;-64
2023/05/10 19:07:49;;;;;;;;;;;;;;;14.85;100.00;101263.22;10479153;28;20272;-64
2023/05/10 19:12:51;;;;;;;;;;;;;;;14.78;100.00;101277.75;10499924;28;19970;-64
2023/05/10 19:17:53;;;;;;;;;;;;;;;14.70;100.00;101275.63;10496469;28;19925;-64
2023/05/10 19:22:59;;;;;;;;;;;;;;;14.72;100.00;101279.00;10499865;28;19970;-64
2023/05/10 19:28:11;;;;;;;;;;;;;;;14.69;100.00;101281.84;10497957;28;19925;-64
2023/05/10 19:33:13;;;;;;;;;;;;;;;14.66;100.00;101284.69;10472969;28;19924;-64
2023/05/10 19:38:15;;;;;;;;;;;;;;;14.44;100.00;101287.84;10497796;28;19925;-64
2023/05/10 19:43:17;;;;;;;;;;;;;;;14.38;100.00;101286.47;10498700;28;20372;-64
2023/05/10 19:48:19;;;;;;;;;;;;;;;14.30;100.00;101294.88;10498209;28;19932;-64
2023/05/10 19:53:22;;;;;;;;;;;;;;;14.46;100.00;101297.38;10497207;28;20024;-64
2023/05/10 19:58:24;;;;;;;;;;;;;;;14.30;100.00;101310.69;10496418;28;19925;-64
2023/05/10 20:03:27;;;;;;;;;;;;;;;14.16;100.00;101320.44;10497737;28;19932;-64
2023/05/10 20:08:29;;;;;;;;;;;;;;;14.20;100.00;101316.66;10498152;28;20433;-64
2023/05/10 20:13:32;;;;;;;;;;;;;;;14.10;100.00;101319.88;10497197;28;19928;-64
2023/05/10 20:18:34;;;;;;;;;;;;;;;14.01;100.00;101309.94;10496954;28;20318;-64
2023/05/10 20:23:37;;;;;;;;;;;;;;;14.21;100.00;101311.28;10497954;28;19994;-64
2023/05/10 20:28:41;;;;;;;;;;;;;;;13.99;100.00;101317.09;10480755;28;19928;-64
2023/05/10 20:33:43;;;;;;;;;;;;;;;13.99;100.00;101325.00;10497390;28;19924;-64
2023/05/10 20:38:45;;;;;;;;;;;;;;;13.83;100.00;101319.00;10496045;28;19925;-64
2023/05/10 20:43:48;;;;;;;;;;;;;;;13.85;100.00;101320.59;10491590;28;19970;-64
2023/05/10 20:48:50;;;;;;;;;;;;;;;13.66;100.00;101331.41;10497547;28;19925;-64
2023/05/10 20:53:52;;;;;;;;;;;;;;;13.60;100.00;101329.19;10504839;28;20449;-64
2023/05/10 20:58:54;;;;;;;;;;;;;;;13.69;100.00;101330.38;10503799;28;19986;-64
2023/05/10 21:03:56;;;;;;;;;;;;;;;13.40;100.00;101333.03;10487566;28;19928;-64
2023/05/10 21:08:59;;;;;;;;;;;;;;;13.68;100.00;101331.31;10504315;28;19950;-64
2023/05/10 21:14:01;;;;;;;;;;;;;;;13.69;100.00;101327.75;10503458;28;20279;-63
2023/05/10 21:19:05;;;;;;;;;;;;;;;13.77;100.00;101327.25;10502997;28;19924;-63
2023/05/10 21:24:08;;;;;;;;;;;;;;;13.78;100.00;101335.06;10504581;28;19924;-63
2023/05/10 21:29:10;;;;;;;;;;;;;;;13.46;100.00;101332.63;10503749;28;19924;-63
2023/05/10 21:34:13;;;;;;;;;;;;;;;13.70;100.00;101334.69;10502386;28;19935;-63
2023/05/10 21:39:15;;;;;;;;;;;;;;;13.60;100.00;101323.91;10502488;28;19924;-63
2023/05/10 21:44:17;;;;;;;;;;;;;;;13.45;100.00;101327.47;10503225;28;19925;-63
2023/05/10 21:49:19;;;;;;;;;;;;;;;13.25;100.00;101321.63;10503709;28;19928;-64
2023/05/10 21:54:21;;;;;;;;;;;;;;;13.10;100.00;101333.06;10501312;28;19924;-64
2023/05/10 21:59:24;;;;;;;;;;;;;;;13.18;100.00;101328.19;10501445;28;19947;-63
2023/05/10 22:04:26;;;;;;;;;;;;;;;13.27;100.00;101337.31;10503122;28;19971;-63
2023/05/10 22:09:28;;;;;;;;;;;;;;;13.38;100.00;101332.25;10502110;28;19924;-63
2023/05/10 22:14:30;;;;;;;;;;;;;;;13.18;100.00;101338.69;10502143;28;19924;-64
2023/05/10 22:19:33;;;;;;;;;;;;;;;13.33;100.00;101336.94;10501963;28;19939;-63
2023/05/10 22:24:35;;;;;;;;;;;;;;;13.29;100.00;101335.41;10502326;28;19924;-64
2023/05/10 22:29:37;;;;;;;;;;;;;;;13.18;100.00;101333.44;10483818;28;20436;-64
2023/05/10 22:34:41;;;;;;;;;;;;;;;13.15;100.00;101336.25;10499773;28;19928;-63
2023/05/10 22:39:44;;;;;;;;;;;;;;;13.38;100.00;101345.41;10501642;28;19970;-64
2023/05/10 22:44:47;;;;;;;;;;;;;;;13.43;100.00;101348.63;10483810;28;19924;-63
2023/05/10 22:49:49;;;;;;;;;;;;;;;13.25;100.00;101349.69;10482186;28;20452;-63
2023/05/10 22:54:51;;;;;;;;;;;;;;;13.26;100.00;101356.63;10499544;28;19970;-63
2023/05/10 22:59:54;;;;;;;;;;;;;;;13.28;100.00;101358.25;10500778;28;19924;-64
2023/05/10 23:04:56;;;;;;;;;;;;;;;13.38;100.00;101354.16;10498593;28;20314;-63
2023/05/10 23:09:58;;;;;;;;;;;;;;;13.25;100.00;101361.06;10500205;28;19931;-63
2023/05/10 23:15:00;;;;;;;;;;;;;;;13.42;100.00;101359.22;10498734;28;19985;-63
2023/05/10 23:20:03;;;;;;;;;;;;;;;13.18;100.00;101354.47;10499346;28;20042;-63
2023/05/10 23:25:05;;;;;;;;;;;;;;;13.23;100.00;101344.53;10499174;28;19924;-63
2023/05/10 23:30:08;;;;;;;;;;;;;;;13.19;100.00;101346.47;10498996;28;19978;-64
2023/05/10 23:35:10;;;;;;;;;;;;;;;13.32;100.00;101349.25;10498042;28;19970;-63
2023/05/10 23:40:13;;;;;;;;;;;;;;;13.32;100.00;101344.00;10498758;28;19932;-63
2023/05/10 23:45:15;;;;;;;;;;;;;;;13.30;100.00;101352.91;10499353;28;19925;-64
2023/05/10 23:50:17;;;;;;;;;;;;;;;13.25;100.00;101353.16;10498223;28;19928;-63
2023/05/10 23:55:20;;;;;;;;;;;;;;;13.30;100.00;101356.38;10497863;28;19932;-63
